createdAt,value
2022-11-28T00:01:19.734Z,95567.25
2022-11-28T00:03:46.790Z,95569.75
2022-11-28T00:06:13.707Z,95570.50
2022-11-28T00:08:40.603Z,95571.41
2022-11-28T00:11:10.076Z,95576.41
2022-11-28T00:13:37.295Z,95578.84
2022-11-28T00:16:05.933Z,95564.84
2022-11-28T00:18:34.045Z,95568.16
2022-11-28T00:21:07.255Z,95570.81
2022-11-28T00:23:34.350Z,95573.31
2022-11-28T00:26:03.694Z,95559.47
2022-11-28T00:28:30.410Z,95556.84
2022-11-28T00:30:57.279Z,95564.75
2022-11-28T00:33:24.460Z,95564.84
2022-11-28T00:35:51.130Z,95570.06
2022-11-28T00:38:17.726Z,95564.75
2022-11-28T00:40:45.591Z,95557.88
2022-11-28T00:43:12.940Z,95561.28
2022-11-28T00:45:39.719Z,95554.34
2022-11-28T00:48:06.411Z,95548.22
2022-11-28T00:50:32.999Z,95545.66
2022-11-28T00:53:00.096Z,95550.16
2022-11-28T00:55:26.663Z,95538.81
2022-11-28T00:57:55.274Z,95535.50
2022-11-28T01:00:22.041Z,95526.94
2022-11-28T01:02:48.776Z,95531.41
2022-11-28T01:05:15.433Z,95525.19
2022-11-28T01:07:42.642Z,95535.03
2022-11-28T01:10:11.635Z,95537.78
2022-11-28T01:12:38.712Z,95535.91
2022-11-28T01:15:08.793Z,95541.97
2022-11-28T01:17:35.694Z,95540.88
2022-11-28T01:20:05.336Z,95541.97
2022-11-28T01:22:31.896Z,95542.75
2022-11-28T01:24:58.749Z,95545.69
2022-11-28T01:27:25.654Z,95547.06
2022-11-28T01:29:55.110Z,95540.88
2022-11-28T01:32:21.698Z,95545.34
2022-11-28T01:34:48.359Z,95535.91
2022-11-28T01:37:14.904Z,95528.31
2022-11-28T01:39:41.454Z,95527.41
2022-11-28T01:42:08.024Z,95530.03
2022-11-28T01:44:34.590Z,95526.53
2022-11-28T01:47:01.219Z,95524.03
2022-11-28T01:49:38.102Z,95527.69
2022-11-28T01:52:07.708Z,95510.81
2022-11-28T01:54:37.498Z,95519.72
2022-11-28T01:57:07.604Z,95504.97
2022-11-28T01:59:38.413Z,95499.66
2022-11-28T02:02:10.126Z,95492.81
2022-11-28T02:04:36.607Z,95505.31
2022-11-28T02:07:03.401Z,95502.00
2022-11-28T02:09:30.048Z,95504.50
2022-11-28T02:12:19.852Z,95497.34
2022-11-28T02:15:14.151Z,95496.47
2022-11-28T02:17:55.487Z,95493.13
2022-11-28T02:20:59.707Z,95487.63
2022-11-28T02:23:54.232Z,95493.53
2022-11-28T02:26:42.075Z,95484.78
2022-11-28T02:29:35.919Z,95480.66
2022-11-28T02:32:24.295Z,95471.16
2022-11-28T02:35:14.436Z,95475.50
2022-11-28T02:37:59.197Z,95459.34
2022-11-28T02:40:35.489Z,95448.47
2022-11-28T02:43:35.612Z,95456.06
2022-11-28T02:46:13.144Z,95446.03
2022-11-28T02:48:45.798Z,95449.97
2022-11-28T02:51:35.704Z,95444.06
2022-11-28T02:54:03.636Z,95442.28
2022-11-28T02:56:30.306Z,95447.44
2022-11-28T02:58:57.050Z,95437.88
2022-11-28T03:01:32.402Z,95435.22
2022-11-28T03:04:09.432Z,95423.03
2022-11-28T03:07:11.168Z,95419.34
2022-11-28T03:09:37.693Z,95413.91
2022-11-28T03:12:13.161Z,95411.88
2022-11-28T03:14:50.765Z,95417.09
2022-11-28T03:17:39.580Z,95423.38
2022-11-28T03:20:36.729Z,95420.50
2022-11-28T03:23:10.007Z,95421.22
2022-11-28T03:25:48.553Z,95406.47
2022-11-28T03:28:40.687Z,95412.19
2022-11-28T03:31:15.829Z,95414.06
2022-11-28T03:33:47.664Z,95429.31
2022-11-28T03:36:23.204Z,95423.72
2022-11-28T03:38:56.588Z,95420.22
2022-11-28T03:41:37.855Z,95399.19
2022-11-28T03:44:08.009Z,95383.84
2022-11-28T03:46:45.670Z,95397.34
2022-11-28T03:49:15.808Z,95398.19
2022-11-28T03:51:55.168Z,95393.53
2022-11-28T03:54:29.001Z,95407.31
2022-11-28T03:57:22.865Z,95415.41
2022-11-28T03:59:52.713Z,95423.13
2022-11-28T04:02:34.511Z,95435.28
2022-11-28T04:05:03.846Z,95430.03
2022-11-28T04:07:56.888Z,95419.44
2022-11-28T04:10:56.508Z,95414.47
2022-11-28T04:13:35.701Z,95415.13
2022-11-28T04:16:09.362Z,95429.94
2022-11-28T04:18:57.624Z,95425.31
2022-11-28T04:21:32.879Z,95415.81
2022-11-28T04:24:06.962Z,95411.47
2022-11-28T04:26:37.040Z,95414.34
2022-11-28T04:29:07.922Z,95418.31
2022-11-28T04:31:36.487Z,95419.97
2022-11-28T04:34:08.151Z,95418.19
2022-11-28T04:36:36.781Z,95418.16
2022-11-28T04:39:08.089Z,95422.25
2022-11-28T04:41:42.148Z,95418.72
2022-11-28T04:44:28.116Z,95407.50
2022-11-28T04:46:56.752Z,95415.25
2022-11-28T04:49:25.435Z,95412.50
2022-11-28T04:52:07.978Z,95415.91
2022-11-28T04:54:51.935Z,95413.38
2022-11-28T04:57:36.646Z,95413.41
2022-11-28T05:00:13.189Z,95412.72
2022-11-28T05:02:41.937Z,95421.88
2022-11-28T05:05:13.581Z,95425.84
2022-11-28T05:07:40.135Z,95430.13
2022-11-28T05:10:07.448Z,95427.66
2022-11-28T05:12:34.248Z,95432.03
2022-11-28T05:15:00.804Z,95415.38
2022-11-28T05:17:27.391Z,95415.81
2022-11-28T05:19:54.020Z,95419.59
2022-11-28T05:22:20.633Z,95416.06
2022-11-28T05:24:47.239Z,95415.38
2022-11-28T05:27:14.045Z,95416.06
2022-11-28T05:29:46.863Z,95418.34
2022-11-28T05:32:16.101Z,95415.66
2022-11-28T05:34:42.892Z,95408.97
2022-11-28T05:37:09.664Z,95422.50
2022-11-28T05:39:36.250Z,95418.34
2022-11-28T05:42:02.833Z,95423.78
2022-11-28T05:44:29.397Z,95418.72
2022-11-28T05:46:55.950Z,95425.13
2022-11-28T05:49:23.861Z,95414.94
2022-11-28T05:51:50.480Z,95413.16
2022-11-28T05:54:17.107Z,95420.81
2022-11-28T05:56:43.782Z,95423.13
2022-11-28T05:59:10.619Z,95405.88
2022-11-28T06:01:37.195Z,95412.19
2022-11-28T06:04:04.235Z,95405.41
2022-11-28T06:06:33.469Z,95408.41
2022-11-28T06:09:00.633Z,95397.38
2022-11-28T06:11:29.127Z,95399.13
2022-11-28T06:13:55.916Z,95404.91
2022-11-28T06:16:28.013Z,95409.84
2022-11-28T06:18:56.873Z,95396.44
2022-11-28T06:21:24.531Z,95408.56
2022-11-28T06:23:51.693Z,95408.22
2022-11-28T06:26:20.862Z,95402.38
2022-11-28T06:28:48.478Z,95400.94
2022-11-28T06:31:21.003Z,95400.91
2022-11-28T06:33:48.341Z,95407.16
2022-11-28T06:36:17.104Z,95399.56
2022-11-28T06:38:43.883Z,95402.28
2022-11-28T06:41:12.829Z,95414.66
2022-11-28T06:43:40.363Z,95409.44
2022-11-28T06:46:15.966Z,95409.19
2022-11-28T06:48:43.745Z,95410.94
2022-11-28T06:51:11.490Z,95415.25
2022-11-28T06:53:38.072Z,95409.09
2022-11-28T06:56:10.082Z,95410.91
2022-11-28T06:58:37.196Z,95417.63
2022-11-28T07:01:12.491Z,95426.97
2022-11-28T07:03:39.641Z,95417.09
2022-11-28T07:06:07.416Z,95422.81
2022-11-28T07:08:34.691Z,95427.00
2022-11-28T07:11:12.129Z,95419.13
2022-11-28T07:13:39.627Z,95423.47
2022-11-28T07:16:06.931Z,95422.63
2022-11-28T07:18:34.055Z,95419.03
2022-11-28T07:21:01.083Z,95421.72
2022-11-28T07:23:27.692Z,95431.16
2022-11-28T07:25:59.826Z,95417.31
2022-11-28T07:28:27.876Z,95424.09
2022-11-28T07:31:10.733Z,95431.06
2022-11-28T07:33:38.431Z,95430.28
2022-11-28T07:36:08.102Z,95432.00
2022-11-28T07:38:34.667Z,95431.16
2022-11-28T07:41:06.691Z,95433.28
2022-11-28T07:43:33.335Z,95441.19
2022-11-28T07:46:03.305Z,95437.78
2022-11-28T07:48:29.966Z,95443.06
2022-11-28T07:50:56.623Z,95432.66
2022-11-28T07:53:23.233Z,95435.34
2022-11-28T07:55:49.849Z,95429.94
2022-11-28T07:58:16.541Z,95438.56
2022-11-28T08:00:43.151Z,95442.06
2022-11-28T08:03:09.904Z,95442.13
2022-11-28T08:05:36.529Z,95449.84
2022-11-28T08:08:03.243Z,95450.47
2022-11-28T08:10:29.961Z,95456.22
2022-11-28T08:12:56.590Z,95448.31
2022-11-28T08:15:23.182Z,95452.75
2022-11-28T08:17:49.851Z,95457.69
2022-11-28T08:20:16.587Z,95452.53
2022-11-28T08:22:43.192Z,95450.78
2022-11-28T08:25:09.912Z,95450.75
2022-11-28T08:27:36.563Z,95440.13
2022-11-28T08:30:04.058Z,95444.53
2022-11-28T08:32:30.716Z,95445.19
2022-11-28T08:34:57.313Z,95444.44
2022-11-28T08:37:23.921Z,95444.59
2022-11-28T08:39:50.472Z,95440.22
2022-11-28T08:42:17.045Z,95438.44
2022-11-28T08:44:43.623Z,95444.03
2022-11-28T08:47:10.513Z,95450.41
2022-11-28T08:49:37.834Z,95452.03
2022-11-28T08:52:05.514Z,95445.97
2022-11-28T08:54:32.245Z,95439.03
2022-11-28T08:56:59.108Z,95437.56
2022-11-28T08:59:25.722Z,95429.78
2022-11-28T09:01:53.789Z,95427.00
2022-11-28T09:04:22.066Z,95432.72
2022-11-28T09:06:48.819Z,95426.22
2022-11-28T09:09:15.716Z,95433.91
2022-11-28T09:11:42.793Z,95440.28
2022-11-28T09:14:09.462Z,95446.38
2022-11-28T09:16:38.367Z,95443.41
2022-11-28T09:19:06.982Z,95445.84
2022-11-28T09:21:33.564Z,95442.06
2022-11-28T09:24:00.142Z,95433.84
2022-11-28T09:26:26.755Z,95428.84
2022-11-28T09:28:53.839Z,95419.88
2022-11-28T09:31:20.754Z,95426.25
2022-11-28T09:33:49.096Z,95435.56
2022-11-28T09:36:21.015Z,95441.28
2022-11-28T09:38:48.439Z,95441.94
2022-11-28T09:41:27.239Z,95443.97
2022-11-28T09:43:56.580Z,95450.91
2022-11-28T09:46:31.762Z,95449.38
2022-11-28T09:49:02.156Z,95451.06
2022-11-28T09:51:42.406Z,95451.19
2022-11-28T09:54:25.662Z,95453.41
2022-11-28T09:56:52.525Z,95446.28
2022-11-28T09:59:27.416Z,95445.44
2022-11-28T10:02:26.254Z,95445.19
2022-11-28T10:04:52.857Z,95452.91
2022-11-28T10:07:27.220Z,95433.69
2022-11-28T10:10:21.301Z,95429.28
2022-11-28T10:13:05.661Z,95426.94
2022-11-28T10:15:51.023Z,95424.09
2022-11-28T10:18:56.787Z,95425.31
2022-11-28T10:21:44.700Z,95431.84
2022-11-28T10:24:16.901Z,95431.81
2022-11-28T10:26:48.022Z,95432.38
2022-11-28T10:29:30.329Z,95434.31
2022-11-28T10:32:04.629Z,95442.28
2022-11-28T10:34:41.603Z,95439.28
2022-11-28T10:37:19.724Z,95437.09
2022-11-28T10:39:46.274Z,95430.91
2022-11-28T10:42:22.319Z,95425.66
2022-11-28T10:45:20.634Z,95429.72
2022-11-28T10:48:41.987Z,95412.16
2022-11-28T10:51:34.741Z,95421.56
2022-11-28T10:54:33.890Z,95421.59
2022-11-28T10:57:09.258Z,95411.38
2022-11-28T10:59:53.329Z,95404.28
2022-11-28T11:02:26.664Z,95408.53
2022-11-28T11:04:53.467Z,95417.94
2022-11-28T11:07:29.694Z,95418.53
2022-11-28T11:10:29.472Z,95414.97
2022-11-28T11:12:56.123Z,95423.47
2022-11-28T11:15:29.972Z,95429.50
2022-11-28T11:17:58.127Z,95430.34
2022-11-28T11:20:33.721Z,95419.38
2022-11-28T11:23:17.551Z,95421.97
2022-11-28T11:25:56.388Z,95422.16
2022-11-28T11:28:32.127Z,95427.47
2022-11-28T11:31:21.952Z,95422.16
2022-11-28T11:33:53.493Z,95421.22
2022-11-28T11:36:28.615Z,95425.97
2022-11-28T11:39:19.106Z,95415.13
2022-11-28T11:41:51.263Z,95416.78
2022-11-28T11:44:34.423Z,95406.63
2022-11-28T11:47:09.137Z,95402.72
2022-11-28T11:49:38.599Z,95395.25
2022-11-28T11:52:17.419Z,95400.03
2022-11-28T11:54:46.921Z,95398.41
2022-11-28T11:57:32.682Z,95401.16
2022-11-28T12:00:22.421Z,95394.72
2022-11-28T12:02:57.031Z,95397.66
2022-11-28T12:05:46.371Z,95389.38
2022-11-28T12:08:31.658Z,95383.50
2022-11-28T12:11:13.732Z,95387.13
2022-11-28T12:13:40.562Z,95381.91
2022-11-28T12:16:23.107Z,95382.56
2022-11-28T12:19:04.726Z,95376.50
2022-11-28T12:21:40.221Z,95382.25
2022-11-28T12:24:15.799Z,95384.19
2022-11-28T12:26:50.738Z,95381.69
2022-11-28T12:29:39.196Z,95383.22
2022-11-28T12:32:25.145Z,95381.47
2022-11-28T12:35:27.585Z,95377.88
2022-11-28T12:38:12.553Z,95377.97
2022-11-28T12:40:54.035Z,95367.06
2022-11-28T12:43:34.316Z,95364.88
2022-11-28T12:46:26.701Z,95360.09
2022-11-28T12:49:12.135Z,95351.69
2022-11-28T12:52:08.343Z,95356.50
2022-11-28T12:55:07.353Z,95357.66
2022-11-28T12:57:41.900Z,95362.28
2022-11-28T13:00:18.246Z,95354.66
2022-11-28T13:02:56.644Z,95346.06
2022-11-28T13:05:47.922Z,95355.44
2022-11-28T13:08:44.754Z,95342.34
2022-11-28T13:11:53.676Z,95337.28
2022-11-28T13:14:41.615Z,95336.78
2022-11-28T13:17:24.613Z,95336.34
2022-11-28T13:20:12.359Z,95335.34
2022-11-28T13:23:02.189Z,95329.31
2022-11-28T13:25:42.041Z,95327.31
2022-11-28T13:28:37.740Z,95327.31
2022-11-28T13:31:21.301Z,95326.72
2022-11-28T13:33:54.608Z,95320.38
2022-11-28T13:39:30.729Z,95322.50
2022-11-28T13:45:36.662Z,95320.09
2022-11-28T13:49:13.762Z,95316.91
2022-11-28T13:51:31.003Z,95311.16
2022-11-28T13:54:17.282Z,95307.28
2022-11-28T13:57:06.925Z,95314.78
2022-11-28T13:59:34.280Z,95305.97
2022-11-28T14:02:03.364Z,95305.59
2022-11-28T14:04:32.041Z,95304.41
2022-11-28T14:07:07.040Z,95305.63
2022-11-28T14:09:47.583Z,95313.75
2022-11-28T14:12:21.438Z,95314.06
2022-11-28T14:15:02.652Z,95306.59
2022-11-28T14:17:43.026Z,95307.78
2022-11-28T14:20:38.054Z,95307.94
2022-11-28T14:23:22.928Z,95307.94
2022-11-28T14:25:52.503Z,95316.16
2022-11-28T14:28:36.911Z,95320.03
2022-11-28T14:31:12.218Z,95316.59
2022-11-28T14:33:43.009Z,95319.59
2022-11-28T14:36:28.467Z,95324.72
2022-11-28T14:39:06.001Z,95328.19
2022-11-28T14:42:05.326Z,95325.72
2022-11-28T14:45:06.546Z,95328.72
2022-11-28T14:47:39.465Z,95326.41
2022-11-28T14:50:07.874Z,95328.09
2022-11-28T14:52:42.856Z,95328.13
2022-11-28T14:55:12.223Z,95327.63
2022-11-28T14:57:54.383Z,95334.72
2022-11-28T15:00:25.799Z,95329.84
2022-11-28T15:03:21.243Z,95328.28
2022-11-28T15:05:52.634Z,95330.84
2022-11-28T15:08:25.416Z,95325.47
2022-11-28T15:11:05.182Z,95333.09
2022-11-28T15:14:09.988Z,95320.66
2022-11-28T15:16:45.237Z,95324.59
2022-11-28T15:19:27.549Z,95319.84
2022-11-28T15:21:55.293Z,95321.94
2022-11-28T15:24:26.074Z,95319.00
2022-11-28T15:26:57.685Z,95322.59
2022-11-28T15:29:28.824Z,95321.03
2022-11-28T15:31:57.838Z,95325.69
2022-11-28T15:34:33.169Z,95325.84
2022-11-28T15:37:02.623Z,95327.59
2022-11-28T15:39:35.165Z,95329.50
2022-11-28T15:42:04.886Z,95338.38
2022-11-28T15:44:32.503Z,95341.09
2022-11-28T15:46:59.822Z,95343.84
2022-11-28T15:49:32.391Z,95353.69
2022-11-28T15:52:02.275Z,95348.44
2022-11-28T15:54:41.282Z,95351.63
2022-11-28T15:57:19.432Z,95357.16
2022-11-28T15:59:46.288Z,95349.63
2022-11-28T16:02:28.749Z,95357.09
2022-11-28T16:05:09.220Z,95348.41
2022-11-28T16:07:41.320Z,95346.63
2022-11-28T16:10:32.442Z,95336.81
2022-11-28T16:13:03.164Z,95339.44
2022-11-28T16:15:30.780Z,95328.72
2022-11-28T16:17:57.654Z,95334.19
2022-11-28T16:20:33.232Z,95331.59
2022-11-28T16:23:06.090Z,95345.47
2022-11-28T16:25:32.770Z,95342.47
2022-11-28T16:27:59.638Z,95343.41
2022-11-28T16:30:26.401Z,95341.41
2022-11-28T16:32:58.263Z,95342.16
2022-11-28T16:35:26.006Z,95336.97
2022-11-28T16:37:52.711Z,95331.81
2022-11-28T16:40:23.818Z,95338.75
2022-11-28T16:42:54.533Z,95339.88
2022-11-28T16:45:27.293Z,95335.00
2022-11-28T16:48:09.745Z,95338.94
2022-11-28T16:50:37.015Z,95334.38
2022-11-28T16:53:04.911Z,95333.38
2022-11-28T16:55:34.755Z,95336.28
2022-11-28T16:58:11.460Z,95329.50
2022-11-28T17:00:40.767Z,95337.78
2022-11-28T17:03:12.715Z,95332.88
2022-11-28T17:05:39.548Z,95330.06
2022-11-28T17:08:08.257Z,95334.69
2022-11-28T17:10:34.896Z,95327.50
2022-11-28T17:13:01.450Z,95330.91
2022-11-28T17:15:28.247Z,95329.78
2022-11-28T17:17:57.177Z,95333.19
2022-11-28T17:20:23.836Z,95323.13
2022-11-28T17:22:51.227Z,95326.00
2022-11-28T17:25:20.218Z,95327.34
2022-11-28T17:27:48.324Z,95326.06
2022-11-28T17:30:17.683Z,95326.00
2022-11-28T17:32:44.838Z,95333.50
2022-11-28T17:35:17.327Z,95344.16
2022-11-28T17:37:44.490Z,95345.13
2022-11-28T17:40:29.625Z,95331.69
2022-11-28T17:42:56.224Z,95340.00
2022-11-28T17:45:23.044Z,95343.56
2022-11-28T17:47:49.755Z,95352.63
2022-11-28T17:50:17.551Z,95351.72
2022-11-28T17:52:44.198Z,95359.50
2022-11-28T17:55:11.318Z,95354.56
2022-11-28T17:57:37.919Z,95359.13
2022-11-28T18:00:06.626Z,95354.50
2022-11-28T18:02:40.934Z,95363.94
2022-11-28T18:05:09.184Z,95362.88
2022-11-28T18:07:35.869Z,95365.47
2022-11-28T18:10:02.630Z,95367.06
2022-11-28T18:12:29.351Z,95364.66
2022-11-28T18:14:56.022Z,95365.69
2022-11-28T18:17:22.602Z,95363.56
2022-11-28T18:19:52.126Z,95357.94
2022-11-28T18:22:22.729Z,95362.13
2022-11-28T18:24:49.335Z,95357.38
2022-11-28T18:27:16.000Z,95358.25
2022-11-28T18:29:43.071Z,95353.09
2022-11-28T18:32:09.807Z,95351.25
2022-11-28T18:34:37.663Z,95355.66
2022-11-28T18:37:05.084Z,95355.47
2022-11-28T18:39:33.071Z,95356.84
2022-11-28T18:42:00.184Z,95357.69
2022-11-28T18:44:27.971Z,95363.91
2022-11-28T18:46:54.599Z,95363.63
2022-11-28T18:49:21.459Z,95365.19
2022-11-28T18:51:48.491Z,95364.69
2022-11-28T18:54:20.579Z,95360.97
2022-11-28T18:56:47.984Z,95372.09
2022-11-28T18:59:14.582Z,95365.06
2022-11-28T19:01:41.223Z,95368.00
2022-11-28T19:04:11.744Z,95355.84
2022-11-28T19:06:40.245Z,95357.28
2022-11-28T19:09:12.121Z,95362.94
2022-11-28T19:11:40.073Z,95366.41
2022-11-28T19:14:07.995Z,95358.66
2022-11-28T19:16:37.971Z,95373.13
2022-11-28T19:19:06.085Z,95366.78
2022-11-28T19:21:35.004Z,95372.16
2022-11-28T19:24:02.021Z,95364.97
2022-11-28T19:26:30.685Z,95364.16
2022-11-28T19:28:59.954Z,95368.75
2022-11-28T19:31:29.149Z,95367.50
2022-11-28T19:34:04.997Z,95372.97
2022-11-28T19:36:41.019Z,95377.28
2022-11-28T19:39:12.221Z,95373.66
2022-11-28T19:41:39.171Z,95379.88
2022-11-28T19:44:06.216Z,95370.31
2022-11-28T19:46:35.767Z,95375.22
2022-11-28T19:49:05.447Z,95373.50
2022-11-28T19:51:33.667Z,95382.78
2022-11-28T19:54:03.579Z,95381.38
2022-11-28T19:56:32.291Z,95380.88
2022-11-28T19:58:59.348Z,95380.47
2022-11-28T20:01:26.237Z,95380.41
2022-11-28T20:03:53.704Z,95383.91
2022-11-28T20:06:23.929Z,95388.56
2022-11-28T20:08:51.842Z,95389.00
2022-11-28T20:11:23.529Z,95385.47
2022-11-28T20:13:56.907Z,95388.81
2022-11-28T20:16:24.281Z,95389.50
2022-11-28T20:18:52.234Z,95388.53
2022-11-28T20:21:20.107Z,95397.19
2022-11-28T20:23:52.989Z,95402.66
2022-11-28T20:26:22.807Z,95399.69
2022-11-28T20:28:49.659Z,95401.13
2022-11-28T20:31:22.907Z,95400.59
2022-11-28T20:33:50.878Z,95402.44
2022-11-28T20:36:21.452Z,95407.47
2022-11-28T20:38:49.295Z,95406.53
2022-11-28T20:41:18.152Z,95404.91
2022-11-28T20:43:45.021Z,95409.06
2022-11-28T20:46:14.057Z,95409.22
2022-11-28T20:48:41.173Z,95411.91
2022-11-28T20:51:19.992Z,95412.94
2022-11-28T20:53:46.923Z,95412.41
2022-11-28T20:56:16.142Z,95409.00
2022-11-28T20:58:43.471Z,95412.88
2022-11-28T21:01:18.837Z,95415.38
2022-11-28T21:03:45.619Z,95409.25
2022-11-28T21:06:13.124Z,95409.53
2022-11-28T21:08:40.092Z,95405.78
2022-11-28T21:14:18.823Z,95410.31
2022-11-28T21:16:45.604Z,95409.31
2022-11-28T21:19:12.196Z,95405.13
2022-11-28T21:21:40.505Z,95405.59
2022-11-28T21:24:10.400Z,95410.31
2022-11-28T21:26:41.056Z,95404.44
2022-11-28T21:29:12.294Z,95399.28
2022-11-28T21:31:42.191Z,95405.38
2022-11-28T21:34:15.445Z,95413.03
2022-11-28T21:36:42.834Z,95406.78
2022-11-28T21:39:15.018Z,95407.66
2022-11-28T21:41:41.856Z,95403.59
2022-11-28T21:44:08.969Z,95407.47
2022-11-28T21:46:35.636Z,95412.03
2022-11-28T21:49:02.369Z,95405.72
2022-11-28T21:51:29.380Z,95410.44
2022-11-28T21:53:59.614Z,95405.97
2022-11-28T21:56:26.217Z,95409.22
2022-11-28T21:58:55.936Z,95411.75
2022-11-28T22:01:24.280Z,95415.22
2022-11-28T22:03:53.387Z,95417.47
2022-11-28T22:06:22.389Z,95413.63
2022-11-28T22:08:50.028Z,95415.66
2022-11-28T22:11:17.053Z,95409.50
2022-11-28T22:13:47.497Z,95411.13
2022-11-28T22:16:24.647Z,95415.81
2022-11-28T22:18:53.456Z,95417.09
2022-11-28T22:24:08.282Z,95422.38
2022-11-28T22:26:35.010Z,95419.81
2022-11-28T22:29:04.195Z,95420.94
2022-11-28T22:31:31.829Z,95423.56
2022-11-28T22:33:58.596Z,95414.88
2022-11-28T22:36:25.675Z,95417.59
2022-11-28T22:38:59.009Z,95422.81
2022-11-28T22:41:29.197Z,95422.16
2022-11-28T22:44:00.687Z,95424.75
2022-11-28T22:46:28.310Z,95421.72
2022-11-28T22:48:55.295Z,95423.03
2022-11-28T22:51:25.992Z,95430.63
2022-11-28T22:53:54.830Z,95432.09
2022-11-28T22:56:26.372Z,95428.00
2022-11-28T22:58:53.887Z,95428.63
2022-11-28T23:01:24.226Z,95431.41
2022-11-28T23:03:51.391Z,95431.47
2022-11-28T23:06:23.858Z,95439.19
2022-11-28T23:08:55.904Z,95432.22
2022-11-28T23:11:27.499Z,95430.69
2022-11-28T23:13:55.067Z,95430.69
2022-11-28T23:16:23.913Z,95441.75
2022-11-28T23:18:53.497Z,95434.75
2022-11-28T23:21:21.656Z,95446.00
2022-11-28T23:23:48.637Z,95443.34
2022-11-28T23:26:21.480Z,95442.94
2022-11-28T23:28:48.187Z,95443.66
2022-11-28T23:31:23.465Z,95440.06
2022-11-28T23:33:53.685Z,95447.28
2022-11-28T23:36:23.441Z,95436.78
2022-11-28T23:38:56.411Z,95443.84
2022-11-28T23:41:23.364Z,95450.97
2022-11-28T23:43:50.305Z,95448.16
2022-11-28T23:46:18.699Z,95454.97
2022-11-28T23:48:46.120Z,95451.81
2022-11-28T23:51:14.389Z,95449.28
2022-11-28T23:53:42.360Z,95449.09
2022-11-28T23:56:12.298Z,95452.56
2022-11-28T23:58:39.253Z,95458.13
